sensor_id;sensor_type;location;lat;lon;timestamp;temperature;humidity
8792;DHT22;4432;50.890;4.744;2023-02-28T00:01:16;-1.70;99.90
8792;DHT22;4432;50.890;4.744;2023-02-28T00:03:42;-1.70;99.90
8792;DHT22;4432;50.890;4.744;2023-02-28T00:06:08;-1.70;99.90
8792;DHT22;4432;50.890;4.744;2023-02-28T00:08:35;-1.60;99.90
8792;DHT22;4432;50.890;4.744;2023-02-28T00:11:06;-1.60;99.90
8792;DHT22;4432;50.890;4.744;2023-02-28T00:13:34;-1.70;99.90
8792;DHT22;4432;50.890;4.744;2023-02-28T00:16:06;-1.80;99.90
8792;DHT22;4432;50.890;4.744;2023-02-28T00:18:32;-1.90;99.90
8792;DHT22;4432;50.890;4.744;2023-02-28T00:20:58;-1.90;99.90
8792;DHT22;4432;50.890;4.744;2023-02-28T00:23:25;-1.90;99.90
8792;DHT22;4432;50.890;4.744;2023-02-28T00:25:51;-1.90;99.90
8792;DHT22;4432;50.890;4.744;2023-02-28T00:28:18;-1.90;99.90
8792;DHT22;4432;50.890;4.744;2023-02-28T00:30:44;-1.90;99.90
8792;DHT22;4432;50.890;4.744;2023-02-28T00:33:10;-1.90;99.90
8792;DHT22;4432;50.890;4.744;2023-02-28T00:35:35;-1.90;99.90
8792;DHT22;4432;50.890;4.744;2023-02-28T00:38:01;-1.80;99.90
8792;DHT22;4432;50.890;4.744;2023-02-28T00:40:28;-1.90;99.90
8792;DHT22;4432;50.890;4.744;2023-02-28T00:42:53;-2.00;99.90
8792;DHT22;4432;50.890;4.744;2023-02-28T00:45:19;-2.10;99.90
8792;DHT22;4432;50.890;4.744;2023-02-28T00:47:45;-2.10;99.90
8792;DHT22;4432;50.890;4.744;2023-02-28T00:50:18;-2.00;99.90
8792;DHT22;4432;50.890;4.744;2023-02-28T00:52:44;-2.10;99.90
8792;DHT22;4432;50.890;4.744;2023-02-28T00:55:10;-2.10;99.90
8792;DHT22;4432;50.890;4.744;2023-02-28T00:57:36;-2.10;99.90
8792;DHT22;4432;50.890;4.744;2023-02-28T01:00:03;-2.20;99.90
8792;DHT22;4432;50.890;4.744;2023-02-28T01:02:29;-2.10;99.90
8792;DHT22;4432;50.890;4.744;2023-02-28T01:04:54;-2.20;99.90
8792;DHT22;4432;50.890;4.744;2023-02-28T01:07:22;-2.20;99.90
8792;DHT22;4432;50.890;4.744;2023-02-28T01:09:48;-2.10;99.90
8792;DHT22;4432;50.890;4.744;2023-02-28T01:12:14;-2.20;99.90
8792;DHT22;4432;50.890;4.744;2023-02-28T01:14:40;-2.20;99.90
8792;DHT22;4432;50.890;4.744;2023-02-28T01:17:05;-2.20;99.90
8792;DHT22;4432;50.890;4.744;2023-02-28T01:19:32;-2.20;99.90
8792;DHT22;4432;50.890;4.744;2023-02-28T01:22:04;-2.20;99.90
8792;DHT22;4432;50.890;4.744;2023-02-28T01:24:30;-2.20;99.90
8792;DHT22;4432;50.890;4.744;2023-02-28T01:26:56;-2.10;99.90
8792;DHT22;4432;50.890;4.744;2023-02-28T01:29:22;-2.10;99.90
8792;DHT22;4432;50.890;4.744;2023-02-28T01:31:47;-1.80;99.90
8792;DHT22;4432;50.890;4.744;2023-02-28T01:34:13;-1.70;99.90
8792;DHT22;4432;50.890;4.744;2023-02-28T01:36:39;-1.80;99.90
8792;DHT22;4432;50.890;4.744;2023-02-28T01:39:04;-1.80;99.90
8792;DHT22;4432;50.890;4.744;2023-02-28T01:41:32;-1.90;99.90
8792;DHT22;4432;50.890;4.744;2023-02-28T01:47:09;-1.50;99.90
8792;DHT22;4432;50.890;4.744;2023-02-28T01:49:34;-1.20;99.90
8792;DHT22;4432;50.890;4.744;2023-02-28T01:52:00;-1.10;99.90
8792;DHT22;4432;50.890;4.744;2023-02-28T01:54:28;-1.20;99.90
8792;DHT22;4432;50.890;4.744;2023-02-28T01:57:17;-1.40;99.90
8792;DHT22;4432;50.890;4.744;2023-02-28T01:59:52;-1.60;99.90
8792;DHT22;4432;50.890;4.744;2023-02-28T02:02:21;-1.80;99.90
8792;DHT22;4432;50.890;4.744;2023-02-28T02:05:19;-2.00;99.90
8792;DHT22;4432;50.890;4.744;2023-02-28T02:07:48;-2.00;99.90
8792;DHT22;4432;50.890;4.744;2023-02-28T02:10:19;-2.10;99.90
8792;DHT22;4432;50.890;4.744;2023-02-28T02:12:56;-2.20;99.90
8792;DHT22;4432;50.890;4.744;2023-02-28T02:18:04;-2.30;99.90
8792;DHT22;4432;50.890;4.744;2023-02-28T02:25:56;-2.20;99.90
8792;DHT22;4432;50.890;4.744;2023-02-28T02:28:35;-2.20;99.90
8792;DHT22;4432;50.890;4.744;2023-02-28T02:36:23;-2.30;99.90
8792;DHT22;4432;50.890;4.744;2023-02-28T02:38:56;-2.30;99.90
8792;DHT22;4432;50.890;4.744;2023-02-28T02:44:19;-2.30;99.90
8792;DHT22;4432;50.890;4.744;2023-02-28T02:46:48;-2.40;99.90
8792;DHT22;4432;50.890;4.744;2023-02-28T02:49:28;-2.40;99.90
8792;DHT22;4432;50.890;4.744;2023-02-28T02:51:58;-2.40;99.90
8792;DHT22;4432;50.890;4.744;2023-02-28T02:54:29;-2.40;99.90
8792;DHT22;4432;50.890;4.744;2023-02-28T02:57:04;-2.50;99.90
8792;DHT22;4432;50.890;4.744;2023-02-28T02:59:32;-2.50;99.90
8792;DHT22;4432;50.890;4.744;2023-02-28T03:02:02;-2.60;99.90
8792;DHT22;4432;50.890;4.744;2023-02-28T03:04:35;-2.60;99.90
8792;DHT22;4432;50.890;4.744;2023-02-28T03:07:03;-2.70;99.90
8792;DHT22;4432;50.890;4.744;2023-02-28T03:09:33;-2.80;99.90
8792;DHT22;4432;50.890;4.744;2023-02-28T03:12:01;-2.90;99.90
8792;DHT22;4432;50.890;4.744;2023-02-28T03:14:41;-2.90;99.90
8792;DHT22;4432;50.890;4.744;2023-02-28T03:20:02;-2.80;99.90
8792;DHT22;4432;50.890;4.744;2023-02-28T03:27:55;-2.80;99.90
8792;DHT22;4432;50.890;4.744;2023-02-28T03:33:19;-2.70;99.90
8792;DHT22;4432;50.890;4.744;2023-02-28T03:35:55;-2.80;99.90
8792;DHT22;4432;50.890;4.744;2023-02-28T03:38:35;-2.90;99.90
8792;DHT22;4432;50.890;4.744;2023-02-28T03:41:09;-3.00;99.90
8792;DHT22;4432;50.890;4.744;2023-02-28T03:43:41;-3.00;99.90
8792;DHT22;4432;50.890;4.744;2023-02-28T03:46:10;-3.00;99.90
8792;DHT22;4432;50.890;4.744;2023-02-28T03:48:45;-3.10;99.90
8792;DHT22;4432;50.890;4.744;2023-02-28T03:51:18;-3.20;99.90
8792;DHT22;4432;50.890;4.744;2023-02-28T03:53:52;-3.20;99.90
8792;DHT22;4432;50.890;4.744;2023-02-28T03:56:22;-3.20;99.90
8792;DHT22;4432;50.890;4.744;2023-02-28T03:59:07;-3.20;99.90
8792;DHT22;4432;50.890;4.744;2023-02-28T04:01:48;-3.20;99.90
8792;DHT22;4432;50.890;4.744;2023-02-28T04:04:15;-3.10;99.90
8792;DHT22;4432;50.890;4.744;2023-02-28T04:06:42;-3.00;99.90
8792;DHT22;4432;50.890;4.744;2023-02-28T04:09:09;-3.00;99.90
8792;DHT22;4432;50.890;4.744;2023-02-28T04:11:55;-2.90;99.90
8792;DHT22;4432;50.890;4.744;2023-02-28T04:14:22;-2.80;99.90
8792;DHT22;4432;50.890;4.744;2023-02-28T04:16:48;-2.70;99.90
8792;DHT22;4432;50.890;4.744;2023-02-28T04:19:14;-2.70;99.90
8792;DHT22;4432;50.890;4.744;2023-02-28T04:21:42;-2.70;99.90
8792;DHT22;4432;50.890;4.744;2023-02-28T04:24:11;-2.60;99.90
8792;DHT22;4432;50.890;4.744;2023-02-28T04:26:41;-2.60;99.90
8792;DHT22;4432;50.890;4.744;2023-02-28T04:29:11;-2.60;99.90
8792;DHT22;4432;50.890;4.744;2023-02-28T04:31:37;-2.60;99.90
8792;DHT22;4432;50.890;4.744;2023-02-28T04:34:03;-2.60;99.90
8792;DHT22;4432;50.890;4.744;2023-02-28T04:36:29;-2.60;99.90
8792;DHT22;4432;50.890;4.744;2023-02-28T04:38:55;-2.70;99.90
8792;DHT22;4432;50.890;4.744;2023-02-28T04:41:21;-2.70;99.90
8792;DHT22;4432;50.890;4.744;2023-02-28T04:43:48;-2.70;99.90
8792;DHT22;4432;50.890;4.744;2023-02-28T04:46:14;-2.60;99.90
8792;DHT22;4432;50.890;4.744;2023-02-28T04:48:41;-2.60;99.90
8792;DHT22;4432;50.890;4.744;2023-02-28T04:51:12;-2.70;99.90
8792;DHT22;4432;50.890;4.744;2023-02-28T04:53:39;-2.60;99.90
8792;DHT22;4432;50.890;4.744;2023-02-28T04:56:06;-2.70;99.90
8792;DHT22;4432;50.890;4.744;2023-02-28T04:58:33;-2.70;99.90
8792;DHT22;4432;50.890;4.744;2023-02-28T05:01:14;-2.60;99.90
8792;DHT22;4432;50.890;4.744;2023-02-28T05:03:41;-2.60;99.90
8792;DHT22;4432;50.890;4.744;2023-02-28T05:06:08;-2.60;99.90
8792;DHT22;4432;50.890;4.744;2023-02-28T05:08:34;-2.60;99.90
8792;DHT22;4432;50.890;4.744;2023-02-28T05:11:00;-2.60;99.90
8792;DHT22;4432;50.890;4.744;2023-02-28T05:13:27;-2.50;99.90
8792;DHT22;4432;50.890;4.744;2023-02-28T05:15:53;-2.50;99.90
8792;DHT22;4432;50.890;4.744;2023-02-28T05:18:19;-2.40;99.90
8792;DHT22;4432;50.890;4.744;2023-02-28T05:20:45;-2.30;99.90
8792;DHT22;4432;50.890;4.744;2023-02-28T05:23:14;-2.30;99.90
8792;DHT22;4432;50.890;4.744;2023-02-28T05:25:41;-2.30;99.90
8792;DHT22;4432;50.890;4.744;2023-02-28T05:28:07;-2.20;99.90
8792;DHT22;4432;50.890;4.744;2023-02-28T05:30:33;-2.00;99.90
8792;DHT22;4432;50.890;4.744;2023-02-28T05:32:59;-1.90;99.90
8792;DHT22;4432;50.890;4.744;2023-02-28T05:35:26;-1.90;99.90
8792;DHT22;4432;50.890;4.744;2023-02-28T05:37:52;-1.80;99.90
8792;DHT22;4432;50.890;4.744;2023-02-28T05:40:18;-1.90;99.90
8792;DHT22;4432;50.890;4.744;2023-02-28T05:42:46;-1.90;99.90
8792;DHT22;4432;50.890;4.744;2023-02-28T05:45:12;-1.80;99.90
8792;DHT22;4432;50.890;4.744;2023-02-28T05:47:38;-1.90;99.90
8792;DHT22;4432;50.890;4.744;2023-02-28T05:50:04;-1.90;99.90
8792;DHT22;4432;50.890;4.744;2023-02-28T05:52:31;-2.00;99.90
8792;DHT22;4432;50.890;4.744;2023-02-28T05:54:57;-2.10;99.90
8792;DHT22;4432;50.890;4.744;2023-02-28T05:57:23;-2.10;99.90
8792;DHT22;4432;50.890;4.744;2023-02-28T05:59:48;-2.20;99.90
8792;DHT22;4432;50.890;4.744;2023-02-28T06:02:17;-2.10;99.90
8792;DHT22;4432;50.890;4.744;2023-02-28T06:04:43;-2.10;99.90
8792;DHT22;4432;50.890;4.744;2023-02-28T06:07:10;-2.20;99.90
8792;DHT22;4432;50.890;4.744;2023-02-28T06:09:36;-2.30;99.90
8792;DHT22;4432;50.890;4.744;2023-02-28T06:12:04;-2.20;99.90
8792;DHT22;4432;50.890;4.744;2023-02-28T06:14:32;-2.30;99.90
8792;DHT22;4432;50.890;4.744;2023-02-28T06:16:59;-2.30;99.90
8792;DHT22;4432;50.890;4.744;2023-02-28T06:19:26;-2.40;99.90
8792;DHT22;4432;50.890;4.744;2023-02-28T06:21:53;-2.40;99.90
8792;DHT22;4432;50.890;4.744;2023-02-28T06:24:19;-2.40;99.90
8792;DHT22;4432;50.890;4.744;2023-02-28T06:26:45;-2.50;99.90
8792;DHT22;4432;50.890;4.744;2023-02-28T06:29:12;-2.50;99.90
8792;DHT22;4432;50.890;4.744;2023-02-28T06:31:37;-2.40;99.90
8792;DHT22;4432;50.890;4.744;2023-02-28T06:34:04;-2.40;99.90
8792;DHT22;4432;50.890;4.744;2023-02-28T06:36:30;-2.40;99.90
8792;DHT22;4432;50.890;4.744;2023-02-28T06:38:56;-2.50;99.90
8792;DHT22;4432;50.890;4.744;2023-02-28T06:41:26;-2.40;99.90
8792;DHT22;4432;50.890;4.744;2023-02-28T06:43:52;-2.30;99.90
8792;DHT22;4432;50.890;4.744;2023-02-28T06:46:18;-2.20;99.90
8792;DHT22;4432;50.890;4.744;2023-02-28T06:48:45;-2.30;99.90
8792;DHT22;4432;50.890;4.744;2023-02-28T06:51:19;-2.30;99.90
8792;DHT22;4432;50.890;4.744;2023-02-28T06:53:49;-2.40;99.90
8792;DHT22;4432;50.890;4.744;2023-02-28T06:56:16;-2.40;99.90
8792;DHT22;4432;50.890;4.744;2023-02-28T06:58:47;-2.50;99.90
8792;DHT22;4432;50.890;4.744;2023-02-28T07:01:14;-2.50;99.90
8792;DHT22;4432;50.890;4.744;2023-02-28T07:03:40;-2.50;99.90
8792;DHT22;4432;50.890;4.744;2023-02-28T07:06:06;-2.50;99.90
8792;DHT22;4432;50.890;4.744;2023-02-28T07:08:33;-2.50;99.90
8792;DHT22;4432;50.890;4.744;2023-02-28T07:10:58;-2.40;99.90
8792;DHT22;4432;50.890;4.744;2023-02-28T07:13:24;-2.40;99.90
8792;DHT22;4432;50.890;4.744;2023-02-28T07:15:58;-2.40;99.90
8792;DHT22;4432;50.890;4.744;2023-02-28T07:18:25;-2.20;99.90
8792;DHT22;4432;50.890;4.744;2023-02-28T07:20:51;-1.80;99.90
8792;DHT22;4432;50.890;4.744;2023-02-28T07:23:17;-1.20;99.90
8792;DHT22;4432;50.890;4.744;2023-02-28T07:25:43;-0.50;99.90
8792;DHT22;4432;50.890;4.744;2023-02-28T07:28:09;0.50;99.90
8792;DHT22;4432;50.890;4.744;2023-02-28T07:30:35;1.40;99.90
8792;DHT22;4432;50.890;4.744;2023-02-28T07:33:01;2.00;99.90
8792;DHT22;4432;50.890;4.744;2023-02-28T07:35:26;2.60;99.90
8792;DHT22;4432;50.890;4.744;2023-02-28T07:37:52;3.00;99.90
8792;DHT22;4432;50.890;4.744;2023-02-28T07:40:18;3.30;99.90
8792;DHT22;4432;50.890;4.744;2023-02-28T07:42:44;3.50;99.90
8792;DHT22;4432;50.890;4.744;2023-02-28T07:45:10;4.10;99.90
8792;DHT22;4432;50.890;4.744;2023-02-28T07:47:41;4.60;99.90
8792;DHT22;4432;50.890;4.744;2023-02-28T07:50:09;4.50;99.90
8792;DHT22;4432;50.890;4.744;2023-02-28T07:52:39;4.50;99.90
8792;DHT22;4432;50.890;4.744;2023-02-28T07:55:06;4.20;99.90
8792;DHT22;4432;50.890;4.744;2023-02-28T07:57:32;4.20;99.90
8792;DHT22;4432;50.890;4.744;2023-02-28T07:59:58;4.40;99.90
8792;DHT22;4432;50.890;4.744;2023-02-28T08:02:24;4.60;99.90
8792;DHT22;4432;50.890;4.744;2023-02-28T08:04:50;4.30;99.90
8792;DHT22;4432;50.890;4.744;2023-02-28T08:07:16;3.90;99.90
8792;DHT22;4432;50.890;4.744;2023-02-28T08:09:43;3.70;99.90
8792;DHT22;4432;50.890;4.744;2023-02-28T08:12:10;3.60;99.90
8792;DHT22;4432;50.890;4.744;2023-02-28T08:14:36;3.30;99.90
8792;DHT22;4432;50.890;4.744;2023-02-28T08:17:03;3.20;99.90
8792;DHT22;4432;50.890;4.744;2023-02-28T08:19:29;3.40;99.90
8792;DHT22;4432;50.890;4.744;2023-02-28T08:21:55;3.60;99.90
8792;DHT22;4432;50.890;4.744;2023-02-28T08:24:21;3.80;99.90
8792;DHT22;4432;50.890;4.744;2023-02-28T08:26:47;3.90;99.90
8792;DHT22;4432;50.890;4.744;2023-02-28T08:29:13;3.90;99.90
8792;DHT22;4432;50.890;4.744;2023-02-28T08:31:38;4.00;99.90
8792;DHT22;4432;50.890;4.744;2023-02-28T08:34:09;4.30;99.90
8792;DHT22;4432;50.890;4.744;2023-02-28T08:36:36;4.50;99.90
8792;DHT22;4432;50.890;4.744;2023-02-28T08:39:03;4.20;99.90
8792;DHT22;4432;50.890;4.744;2023-02-28T08:41:29;4.50;99.90
8792;DHT22;4432;50.890;4.744;2023-02-28T08:43:55;4.40;99.90
8792;DHT22;4432;50.890;4.744;2023-02-28T08:46:20;4.20;99.90
8792;DHT22;4432;50.890;4.744;2023-02-28T08:48:46;4.90;99.90
8792;DHT22;4432;50.890;4.744;2023-02-28T08:51:16;4.80;99.90
8792;DHT22;4432;50.890;4.744;2023-02-28T08:53:47;4.90;99.90
8792;DHT22;4432;50.890;4.744;2023-02-28T08:56:17;5.00;99.90
8792;DHT22;4432;50.890;4.744;2023-02-28T08:58:43;5.10;99.90
8792;DHT22;4432;50.890;4.744;2023-02-28T09:01:29;5.10;99.90
8792;DHT22;4432;50.890;4.744;2023-02-28T09:03:56;5.10;99.90
8792;DHT22;4432;50.890;4.744;2023-02-28T09:06:25;5.10;99.90
8792;DHT22;4432;50.890;4.744;2023-02-28T09:08:51;4.80;99.90
8792;DHT22;4432;50.890;4.744;2023-02-28T09:11:18;4.90;99.90
8792;DHT22;4432;50.890;4.744;2023-02-28T09:13:45;5.30;99.90
8792;DHT22;4432;50.890;4.744;2023-02-28T09:16:13;5.20;99.90
8792;DHT22;4432;50.890;4.744;2023-02-28T09:18:40;5.00;99.90
8792;DHT22;4432;50.890;4.744;2023-02-28T09:21:07;4.90;99.90
8792;DHT22;4432;50.890;4.744;2023-02-28T09:23:34;5.20;99.90
8792;DHT22;4432;50.890;4.744;2023-02-28T09:26:00;5.20;99.90
8792;DHT22;4432;50.890;4.744;2023-02-28T09:28:26;5.10;99.90
8792;DHT22;4432;50.890;4.744;2023-02-28T09:30:53;5.10;99.90
8792;DHT22;4432;50.890;4.744;2023-02-28T09:33:20;5.00;99.90
8792;DHT22;4432;50.890;4.744;2023-02-28T09:35:48;5.40;99.90
8792;DHT22;4432;50.890;4.744;2023-02-28T09:38:13;5.40;99.40
8792;DHT22;4432;50.890;4.744;2023-02-28T09:40:49;5.10;99.80
8792;DHT22;4432;50.890;4.744;2023-02-28T09:43:17;4.60;98.50
8792;DHT22;4432;50.890;4.744;2023-02-28T09:45:54;4.70;99.90
8792;DHT22;4432;50.890;4.744;2023-02-28T09:48:29;4.90;99.90
8792;DHT22;4432;50.890;4.744;2023-02-28T09:53:39;4.70;98.30
8792;DHT22;4432;50.890;4.744;2023-02-28T10:03:50;4.30;98.30
8792;DHT22;4432;50.890;4.744;2023-02-28T10:06:26;4.60;97.00
8792;DHT22;4432;50.890;4.744;2023-02-28T10:09:00;4.50;96.20
8792;DHT22;4432;50.890;4.744;2023-02-28T10:11:27;4.10;97.90
8792;DHT22;4432;50.890;4.744;2023-02-28T10:14:00;4.20;98.30
8792;DHT22;4432;50.890;4.744;2023-02-28T10:21:39;4.90;96.20
8792;DHT22;4432;50.890;4.744;2023-02-28T10:27:00;4.60;95.20
8792;DHT22;4432;50.890;4.744;2023-02-28T10:29:28;4.40;95.70
8792;DHT22;4432;50.890;4.744;2023-02-28T10:31:57;4.50;96.80
8792;DHT22;4432;50.890;4.744;2023-02-28T10:34:24;4.30;94.10
8792;DHT22;4432;50.890;4.744;2023-02-28T10:36:50;4.20;94.30
8792;DHT22;4432;50.890;4.744;2023-02-28T10:39:40;4.40;94.90
8792;DHT22;4432;50.890;4.744;2023-02-28T10:42:25;4.60;93.30
8792;DHT22;4432;50.890;4.744;2023-02-28T10:45:11;4.70;92.40
8792;DHT22;4432;50.890;4.744;2023-02-28T10:47:49;4.50;92.30
8792;DHT22;4432;50.890;4.744;2023-02-28T10:50:32;4.60;92.50
8792;DHT22;4432;50.890;4.744;2023-02-28T11:01:36;4.60;92.00
8792;DHT22;4432;50.890;4.744;2023-02-28T11:04:03;4.70;92.00
8792;DHT22;4432;50.890;4.744;2023-02-28T11:06:33;4.60;91.60
8792;DHT22;4432;50.890;4.744;2023-02-28T11:09:23;4.80;92.00
8792;DHT22;4432;50.890;4.744;2023-02-28T11:11:50;5.00;89.50
8792;DHT22;4432;50.890;4.744;2023-02-28T11:14:24;5.00;85.60
8792;DHT22;4432;50.890;4.744;2023-02-28T11:16:51;5.10;90.40
8792;DHT22;4432;50.890;4.744;2023-02-28T11:19:23;5.00;86.20
8792;DHT22;4432;50.890;4.744;2023-02-28T11:21:57;5.00;83.50
8792;DHT22;4432;50.890;4.744;2023-02-28T11:24:44;5.00;82.00
8792;DHT22;4432;50.890;4.744;2023-02-28T11:29:56;5.30;84.70
8792;DHT22;4432;50.890;4.744;2023-02-28T11:32:23;5.40;80.80
8792;DHT22;4432;50.890;4.744;2023-02-28T11:35:47;5.50;82.90
8792;DHT22;4432;50.890;4.744;2023-02-28T11:37:48;5.60;76.00
8792;DHT22;4432;50.890;4.744;2023-02-28T11:40:19;5.50;71.40
8792;DHT22;4432;50.890;4.744;2023-02-28T11:42:53;5.40;71.20
8792;DHT22;4432;50.890;4.744;2023-02-28T11:50:54;5.60;67.10
8792;DHT22;4432;50.890;4.744;2023-02-28T11:53:39;5.60;71.00
8792;DHT22;4432;50.890;4.744;2023-02-28T11:56:43;5.60;63.30
8792;DHT22;4432;50.890;4.744;2023-02-28T12:02:24;5.50;62.70
8792;DHT22;4432;50.890;4.744;2023-02-28T12:05:12;5.50;64.20
8792;DHT22;4432;50.890;4.744;2023-02-28T12:19:03;4.80;64.70
8792;DHT22;4432;50.890;4.744;2023-02-28T12:24:47;5.10;68.20
8792;DHT22;4432;50.890;4.744;2023-02-28T12:27:20;5.50;65.30
8792;DHT22;4432;50.890;4.744;2023-02-28T12:33:00;5.70;61.80
8792;DHT22;4432;50.890;4.744;2023-02-28T12:35:50;5.70;62.60
8792;DHT22;4432;50.890;4.744;2023-02-28T12:38:29;5.50;59.60
8792;DHT22;4432;50.890;4.744;2023-02-28T12:40:59;5.60;59.00
8792;DHT22;4432;50.890;4.744;2023-02-28T12:43:32;5.60;58.80
8792;DHT22;4432;50.890;4.744;2023-02-28T12:48:40;5.80;56.50
8792;DHT22;4432;50.890;4.744;2023-02-28T12:51:08;5.60;57.10
8792;DHT22;4432;50.890;4.744;2023-02-28T12:59:10;6.00;57.70
8792;DHT22;4432;50.890;4.744;2023-02-28T13:10:13;5.90;54.30
8792;DHT22;4432;50.890;4.744;2023-02-28T13:12:49;5.90;52.60
8792;DHT22;4432;50.890;4.744;2023-02-28T13:17:55;5.60;55.60
8792;DHT22;4432;50.890;4.744;2023-02-28T13:20:26;5.70;54.50
8792;DHT22;4432;50.890;4.744;2023-02-28T13:22:54;5.60;53.80
8792;DHT22;4432;50.890;4.744;2023-02-28T13:27:58;5.70;57.80
8792;DHT22;4432;50.890;4.744;2023-02-28T13:38:47;5.70;56.30
8792;DHT22;4432;50.890;4.744;2023-02-28T13:44:21;5.90;57.00
8792;DHT22;4432;50.890;4.744;2023-02-28T13:57:52;5.80;50.80
8792;DHT22;4432;50.890;4.744;2023-02-28T14:01:16;5.80;51.90
8792;DHT22;4432;50.890;4.744;2023-02-28T14:06:31;6.10;53.60
8792;DHT22;4432;50.890;4.744;2023-02-28T14:09:00;6.10;53.40
8792;DHT22;4432;50.890;4.744;2023-02-28T14:11:28;5.90;53.20
8792;DHT22;4432;50.890;4.744;2023-02-28T14:13:54;6.00;56.80
8792;DHT22;4432;50.890;4.744;2023-02-28T14:16:23;5.90;53.40
8792;DHT22;4432;50.890;4.744;2023-02-28T14:18:59;5.80;55.10
8792;DHT22;4432;50.890;4.744;2023-02-28T14:21:35;5.90;52.30
8792;DHT22;4432;50.890;4.744;2023-02-28T14:24:23;5.80;53.40
8792;DHT22;4432;50.890;4.744;2023-02-28T14:32:45;5.70;53.70
8792;DHT22;4432;50.890;4.744;2023-02-28T14:37:53;5.60;53.50
8792;DHT22;4432;50.890;4.744;2023-02-28T14:40:29;5.70;58.70
8792;DHT22;4432;50.890;4.744;2023-02-28T14:42:58;5.70;57.40
8792;DHT22;4432;50.890;4.744;2023-02-28T14:45:30;5.60;59.00
8792;DHT22;4432;50.890;4.744;2023-02-28T14:47:57;5.50;56.10
8792;DHT22;4432;50.890;4.744;2023-02-28T14:50:35;5.70;58.30
8792;DHT22;4432;50.890;4.744;2023-02-28T14:53:02;5.80;57.30
8792;DHT22;4432;50.890;4.744;2023-02-28T14:55:35;5.90;55.80
8792;DHT22;4432;50.890;4.744;2023-02-28T14:58:06;5.80;55.50
8792;DHT22;4432;50.890;4.744;2023-02-28T15:00:34;5.80;55.40
8792;DHT22;4432;50.890;4.744;2023-02-28T15:03:27;5.80;57.20
8792;DHT22;4432;50.890;4.744;2023-02-28T15:05:57;5.90;57.70
8792;DHT22;4432;50.890;4.744;2023-02-28T15:08:24;5.90;53.50
8792;DHT22;4432;50.890;4.744;2023-02-28T15:10:55;5.90;56.50
8792;DHT22;4432;50.890;4.744;2023-02-28T15:13:25;5.90;54.40
8792;DHT22;4432;50.890;4.744;2023-02-28T15:15:57;5.80;55.90
8792;DHT22;4432;50.890;4.744;2023-02-28T15:20:53;5.80;56.60
8792;DHT22;4432;50.890;4.744;2023-02-28T15:23:21;5.80;58.50
8792;DHT22;4432;50.890;4.744;2023-02-28T15:25:48;5.50;55.30
8792;DHT22;4432;50.890;4.744;2023-02-28T15:28:18;5.50;57.10
8792;DHT22;4432;50.890;4.744;2023-02-28T15:31:02;5.50;58.80
8792;DHT22;4432;50.890;4.744;2023-02-28T15:33:31;5.40;58.20
8792;DHT22;4432;50.890;4.744;2023-02-28T15:38:34;5.30;58.20
8792;DHT22;4432;50.890;4.744;2023-02-28T15:41:00;5.30;60.80
8792;DHT22;4432;50.890;4.744;2023-02-28T15:43:31;5.30;58.70
8792;DHT22;4432;50.890;4.744;2023-02-28T15:51:24;5.20;61.20
8792;DHT22;4432;50.890;4.744;2023-02-28T15:54:05;5.20;59.20
8792;DHT22;4432;50.890;4.744;2023-02-28T15:56:38;5.10;60.00
8792;DHT22;4432;50.890;4.744;2023-02-28T15:59:30;5.10;61.30
8792;DHT22;4432;50.890;4.744;2023-02-28T16:02:16;5.10;62.10
8792;DHT22;4432;50.890;4.744;2023-02-28T16:07:39;5.10;60.30
8792;DHT22;4432;50.890;4.744;2023-02-28T16:10:06;5.00;59.60
8792;DHT22;4432;50.890;4.744;2023-02-28T16:12:35;5.00;59.90
8792;DHT22;4432;50.890;4.744;2023-02-28T16:15:06;4.90;61.70
8792;DHT22;4432;50.890;4.744;2023-02-28T16:17:35;4.90;60.80
8792;DHT22;4432;50.890;4.744;2023-02-28T16:20:12;4.90;60.70
8792;DHT22;4432;50.890;4.744;2023-02-28T16:22:39;4.80;65.40
8792;DHT22;4432;50.890;4.744;2023-02-28T16:25:05;4.80;61.90
8792;DHT22;4432;50.890;4.744;2023-02-28T16:27:36;4.80;64.00
8792;DHT22;4432;50.890;4.744;2023-02-28T16:30:05;4.70;62.80
8792;DHT22;4432;50.890;4.744;2023-02-28T16:32:32;4.70;61.00
8792;DHT22;4432;50.890;4.744;2023-02-28T16:35:00;4.70;60.10
8792;DHT22;4432;50.890;4.744;2023-02-28T16:37:27;4.70;61.80
8792;DHT22;4432;50.890;4.744;2023-02-28T16:39:53;4.60;60.90
8792;DHT22;4432;50.890;4.744;2023-02-28T16:42:26;4.60;59.50
8792;DHT22;4432;50.890;4.744;2023-02-28T16:44:53;4.50;64.60
8792;DHT22;4432;50.890;4.744;2023-02-28T16:47:19;4.50;61.60
8792;DHT22;4432;50.890;4.744;2023-02-28T16:49:45;4.40;64.00
8792;DHT22;4432;50.890;4.744;2023-02-28T16:52:13;4.30;66.70
8792;DHT22;4432;50.890;4.744;2023-02-28T16:54:39;4.30;64.90
8792;DHT22;4432;50.890;4.744;2023-02-28T16:57:08;4.20;65.10
8792;DHT22;4432;50.890;4.744;2023-02-28T16:59:37;4.20;62.20
8792;DHT22;4432;50.890;4.744;2023-02-28T17:02:12;4.20;65.80
8792;DHT22;4432;50.890;4.744;2023-02-28T17:04:38;4.10;66.80
8792;DHT22;4432;50.890;4.744;2023-02-28T17:07:03;4.00;64.80
8792;DHT22;4432;50.890;4.744;2023-02-28T17:09:29;3.90;67.30
8792;DHT22;4432;50.890;4.744;2023-02-28T17:11:55;3.90;67.80
8792;DHT22;4432;50.890;4.744;2023-02-28T17:14:22;3.80;71.90
8792;DHT22;4432;50.890;4.744;2023-02-28T17:16:49;3.60;71.70
8792;DHT22;4432;50.890;4.744;2023-02-28T17:19:16;3.50;75.20
8792;DHT22;4432;50.890;4.744;2023-02-28T17:21:43;3.40;73.10
8792;DHT22;4432;50.890;4.744;2023-02-28T17:24:09;3.40;73.70
8792;DHT22;4432;50.890;4.744;2023-02-28T17:26:39;3.40;75.10
8792;DHT22;4432;50.890;4.744;2023-02-28T17:29:11;3.30;74.90
8792;DHT22;4432;50.890;4.744;2023-02-28T17:31:38;3.30;76.90
8792;DHT22;4432;50.890;4.744;2023-02-28T17:34:04;3.20;77.90
8792;DHT22;4432;50.890;4.744;2023-02-28T17:36:30;3.00;79.20
8792;DHT22;4432;50.890;4.744;2023-02-28T17:38:56;3.00;80.50
8792;DHT22;4432;50.890;4.744;2023-02-28T17:41:23;2.90;82.10
8792;DHT22;4432;50.890;4.744;2023-02-28T17:43:51;2.80;84.40
8792;DHT22;4432;50.890;4.744;2023-02-28T17:46:19;2.70;81.50
8792;DHT22;4432;50.890;4.744;2023-02-28T17:48:52;2.70;83.90
8792;DHT22;4432;50.890;4.744;2023-02-28T17:51:20;2.80;84.00
8792;DHT22;4432;50.890;4.744;2023-02-28T17:53:47;2.90;80.90
8792;DHT22;4432;50.890;4.744;2023-02-28T17:56:18;2.90;81.70
8792;DHT22;4432;50.890;4.744;2023-02-28T17:58:44;2.80;85.30
8792;DHT22;4432;50.890;4.744;2023-02-28T18:01:10;2.70;87.40
8792;DHT22;4432;50.890;4.744;2023-02-28T18:03:37;2.50;89.10
8792;DHT22;4432;50.890;4.744;2023-02-28T18:06:03;2.40;90.60
8792;DHT22;4432;50.890;4.744;2023-02-28T18:08:30;2.30;91.90
8792;DHT22;4432;50.890;4.744;2023-02-28T18:10:56;2.20;92.80
8792;DHT22;4432;50.890;4.744;2023-02-28T18:13:22;2.20;92.20
8792;DHT22;4432;50.890;4.744;2023-02-28T18:15:48;2.10;93.10
8792;DHT22;4432;50.890;4.744;2023-02-28T18:18:13;2.00;94.50
8792;DHT22;4432;50.890;4.744;2023-02-28T18:20:41;2.00;96.20
8792;DHT22;4432;50.890;4.744;2023-02-28T18:23:07;2.00;97.10
8792;DHT22;4432;50.890;4.744;2023-02-28T18:25:32;2.00;97.00
8792;DHT22;4432;50.890;4.744;2023-02-28T18:27:58;1.90;98.00
8792;DHT22;4432;50.890;4.744;2023-02-28T18:30:26;1.80;98.40
8792;DHT22;4432;50.890;4.744;2023-02-28T18:32:55;1.90;98.90
8792;DHT22;4432;50.890;4.744;2023-02-28T18:35:22;1.70;99.90
8792;DHT22;4432;50.890;4.744;2023-02-28T18:38:13;1.50;99.90
8792;DHT22;4432;50.890;4.744;2023-02-28T18:40:39;1.20;99.90
8792;DHT22;4432;50.890;4.744;2023-02-28T18:43:05;1.00;99.90
8792;DHT22;4432;50.890;4.744;2023-02-28T18:45:34;0.90;99.90
8792;DHT22;4432;50.890;4.744;2023-02-28T18:48:00;0.70;99.90
8792;DHT22;4432;50.890;4.744;2023-02-28T18:50:26;0.60;99.90
8792;DHT22;4432;50.890;4.744;2023-02-28T18:52:52;0.50;99.90
8792;DHT22;4432;50.890;4.744;2023-02-28T18:55:18;0.50;99.90
8792;DHT22;4432;50.890;4.744;2023-02-28T18:57:45;0.40;99.90
8792;DHT22;4432;50.890;4.744;2023-02-28T19:00:12;0.30;99.90
8792;DHT22;4432;50.890;4.744;2023-02-28T19:02:38;0.20;99.90